Time;durP1;ratioP1;P1;durP2;ratioP2;P2;SDS_P1;SDS_P2;PMS_P1;PMS_P2;Temp;Humidity;BMP_temperature;BMP_pressure;BME280_temperature;BME280_humidity;BME280_pressure;Samples;Min_cycle;Max_cycle;Signal;HPM_P1;HPM_P2
2021/03/08 00:00:17;;;;;;;42.20;21.63;;;5.00;99.90;;;;;;5027516;28;20700;-79
2021/03/08 00:03:04;;;;;;;39.27;23.27;;;5.00;99.90;;;;;;5026362;28;20305;-79
2021/03/08 00:05:48;;;;;;;39.30;21.73;;;5.00;99.90;;;;;;5025381;28;20223;-79
2021/03/08 00:08:33;;;;;;;40.00;22.23;;;5.00;99.90;;;;;;5036836;28;20211;-79
2021/03/08 00:11:19;;;;;;;41.70;24.07;;;5.00;99.90;;;;;;5030432;28;20651;-79
2021/03/08 00:14:04;;;;;;;39.63;23.17;;;5.00;99.90;;;;;;5031598;28;20203;-79
2021/03/08 00:16:49;;;;;;;40.40;22.73;;;5.00;99.90;;;;;;5032728;28;20203;-79
2021/03/08 00:19:34;;;;;;;44.27;23.57;;;4.90;99.90;;;;;;5021459;28;20200;-79
2021/03/08 00:22:19;;;;;;;39.53;22.27;;;4.90;99.90;;;;;;5032569;28;20227;-79
2021/03/08 00:25:06;;;;;;;40.30;21.90;;;5.00;99.90;;;;;;5032777;28;20211;-79
2021/03/08 00:27:51;;;;;;;44.37;22.33;;;5.00;99.90;;;;;;5028001;28;20212;-79
2021/03/08 00:30:37;;;;;;;42.43;21.97;;;4.90;99.90;;;;;;5033040;28;20222;-79
2021/03/08 00:33:21;;;;;;;36.60;20.77;;;4.90;99.90;;;;;;5034009;28;20227;-79
2021/03/08 00:36:07;;;;;;;40.43;22.10;;;5.00;99.90;;;;;;5031278;28;20199;-80
2021/03/08 00:38:51;;;;;;;36.70;21.63;;;4.90;99.90;;;;;;5034389;28;20696;-79
2021/03/08 00:41:36;;;;;;;41.20;22.07;;;4.90;99.90;;;;;;5040451;28;20322;-79
2021/03/08 00:44:21;;;;;;;42.03;22.47;;;4.90;99.90;;;;;;5029201;28;20211;-78
2021/03/08 00:47:07;;;;;;;39.50;21.63;;;4.90;99.90;;;;;;5038495;28;20219;-79
2021/03/08 00:49:52;;;;;;;40.47;21.00;;;4.90;99.90;;;;;;5032620;28;20204;-78
2021/03/08 00:52:37;;;;;;;40.30;21.13;;;4.90;99.90;;;;;;5038755;28;20337;-79
2021/03/08 00:55:22;;;;;;;39.97;22.27;;;4.90;99.90;;;;;;5037995;28;20231;-79
2021/03/08 00:58:07;;;;;;;38.87;21.33;;;4.90;99.90;;;;;;5036689;28;20219;-79
2021/03/08 01:00:52;;;;;;;37.77;21.70;;;4.90;99.90;;;;;;5035131;28;20219;-79
2021/03/08 01:03:37;;;;;;;39.93;21.23;;;4.90;99.90;;;;;;5026936;28;20295;-79
2021/03/08 01:06:22;;;;;;;38.07;20.43;;;4.90;99.90;;;;;;5034301;28;20211;-79
2021/03/08 01:09:07;;;;;;;37.33;20.63;;;4.80;99.90;;;;;;5037236;28;20242;-79
2021/03/08 01:11:52;;;;;;;39.27;20.07;;;4.80;99.90;;;;;;5035304;28;20735;-79
2021/03/08 01:14:37;;;;;;;44.20;21.80;;;4.80;99.90;;;;;;5032098;28;20211;-79
2021/03/08 01:17:22;;;;;;;37.83;20.47;;;4.80;99.90;;;;;;5032078;28;20204;-79
2021/03/08 01:20:11;;;;;;;37.30;19.97;;;4.80;99.90;;;;;;5041630;28;20208;-78
2021/03/08 01:22:56;;;;;;;38.53;21.97;;;4.80;99.90;;;;;;5033767;28;20232;-79
2021/03/08 01:25:41;;;;;;;37.83;20.43;;;4.80;99.90;;;;;;5028715;28;20255;-79
2021/03/08 01:28:26;;;;;;;35.57;19.47;;;4.80;99.90;;;;;;5036107;28;20212;-79
2021/03/08 01:31:11;;;;;;;41.57;22.67;;;4.80;99.90;;;;;;5038047;28;20258;-79
2021/03/08 01:34:00;;;;;;;39.63;21.87;;;4.80;99.90;;;;;;5037322;28;20318;-79
2021/03/08 01:36:45;;;;;;;41.03;22.17;;;4.80;99.90;;;;;;5031486;28;20618;-78
2021/03/08 01:39:30;;;;;;;40.23;21.80;;;4.80;99.90;;;;;;5029352;28;20576;-79
2021/03/08 01:42:15;;;;;;;34.27;19.63;;;4.80;99.90;;;;;;5032862;28;20606;-79
2021/03/08 01:45:00;;;;;;;38.33;21.30;;;4.80;99.90;;;;;;5027953;28;20222;-79
2021/03/08 01:47:54;;;;;;;40.27;21.40;;;4.80;99.90;;;;;;5029266;28;20627;-79
2021/03/08 01:50:42;;;;;;;39.07;21.40;;;4.80;99.90;;;;;;5028195;28;20266;-79
2021/03/08 01:53:29;;;;;;;45.27;22.37;;;4.80;99.90;;;;;;5028916;28;20603;-79
2021/03/08 01:56:14;;;;;;;41.67;22.90;;;4.80;99.90;;;;;;5031200;28;20212;-79
2021/03/08 01:58:59;;;;;;;40.73;21.17;;;4.80;99.90;;;;;;5035407;28;20262;-79
2021/03/08 02:01:45;;;;;;;43.37;22.87;;;4.80;99.90;;;;;;5035010;28;20611;-79
2021/03/08 02:04:30;;;;;;;40.83;20.87;;;4.80;99.90;;;;;;5038419;28;20363;-79
2021/03/08 02:07:15;;;;;;;40.27;21.57;;;4.80;99.90;;;;;;5036931;28;20212;-79
2021/03/08 02:10:01;;;;;;;39.43;22.33;;;4.70;99.90;;;;;;5035398;28;20454;-79
2021/03/08 02:13:05;;;;;;;43.23;22.07;;;4.70;99.90;;;;;;5029032;28;20227;-79
2021/03/08 02:15:55;;;;;;;40.10;21.17;;;4.70;99.90;;;;;;5033047;28;20215;-79
2021/03/08 02:18:48;;;;;;;43.77;22.40;;;4.60;99.90;;;;;;5033987;28;20266;-79
2021/03/08 02:22:05;;;;;;;44.23;23.00;;;4.70;99.90;;;;;;5035814;28;20243;-79
2021/03/08 02:25:16;;;;;;;45.97;24.03;;;4.70;99.90;;;;;;5028740;28;20207;-79
2021/03/08 02:28:28;;;;;;;43.43;22.67;;;4.70;99.90;;;;;;5036965;28;20226;-79
2021/03/08 02:31:16;;;;;;;44.73;23.73;;;4.60;99.90;;;;;;5012339;28;20624;-79
2021/03/08 02:34:06;;;;;;;46.27;23.50;;;4.60;99.90;;;;;;5032750;28;20215;-79
2021/03/08 02:36:57;;;;;;;48.27;24.97;;;4.60;99.90;;;;;;5037472;28;20227;-79
2021/03/08 02:39:48;;;;;;;48.47;24.87;;;4.60;99.90;;;;;;5034878;28;20247;-79
2021/03/08 02:42:37;;;;;;;45.87;25.17;;;4.60;99.90;;;;;;5035715;28;20259;-79
2021/03/08 02:45:26;;;;;;;53.17;27.30;;;4.60;99.90;;;;;;5033948;28;20211;-79
2021/03/08 02:48:13;;;;;;;55.50;27.53;;;4.60;99.90;;;;;;5031171;28;20318;-79
2021/03/08 02:51:01;;;;;;;48.03;26.20;;;4.50;99.90;;;;;;5024765;28;20232;-79
2021/03/08 02:53:50;;;;;;;52.07;27.53;;;4.50;99.90;;;;;;5034524;28;20208;-79
2021/03/08 02:56:36;;;;;;;52.93;27.83;;;4.50;99.90;;;;;;5037129;28;20206;-79
2021/03/08 02:59:23;;;;;;;51.97;27.57;;;4.50;99.90;;;;;;5030586;28;20573;-79
2021/03/08 03:02:09;;;;;;;49.83;26.57;;;4.50;99.90;;;;;;5027573;28;20839;-79
2021/03/08 03:04:58;;;;;;;48.03;25.43;;;4.50;99.90;;;;;;5028571;28;20555;-79
2021/03/08 03:07:47;;;;;;;50.23;27.40;;;4.50;99.90;;;;;;5023242;28;20215;-79
2021/03/08 03:10:33;;;;;;;52.13;27.50;;;4.50;99.90;;;;;;5029718;28;20805;-79
2021/03/08 03:13:19;;;;;;;49.93;25.87;;;4.50;99.90;;;;;;5028504;28;20227;-79
2021/03/08 03:16:05;;;;;;;56.87;27.93;;;4.40;99.90;;;;;;5034893;28;20235;-79
2021/03/08 03:18:53;;;;;;;52.53;26.03;;;4.40;99.90;;;;;;5031613;28;20306;-79
2021/03/08 03:21:42;;;;;;;53.03;27.97;;;4.40;99.90;;;;;;5033057;28;20222;-79
2021/03/08 03:24:28;;;;;;;48.30;26.53;;;4.40;99.90;;;;;;5031320;28;20302;-79
2021/03/08 03:27:15;;;;;;;55.23;29.17;;;4.40;99.90;;;;;;5025197;28;20239;-78
2021/03/08 03:30:00;;;;;;;51.70;28.00;;;4.40;99.90;;;;;;5021200;28;20327;-79
2021/03/08 03:32:46;;;;;;;54.60;27.00;;;4.40;99.90;;;;;;5028578;28;20262;-79
2021/03/08 03:35:32;;;;;;;51.67;25.63;;;4.40;99.90;;;;;;5031201;28;20623;-78
2021/03/08 03:38:21;;;;;;;58.20;28.77;;;4.40;99.90;;;;;;5030641;28;20210;-79
2021/03/08 03:41:06;;;;;;;52.60;28.73;;;4.40;99.90;;;;;;5032387;28;20223;-79
2021/03/08 03:43:51;;;;;;;54.87;27.07;;;4.40;99.90;;;;;;5029825;28;20338;-79
2021/03/08 03:46:38;;;;;;;57.07;28.83;;;4.40;99.90;;;;;;5033958;28;20207;-78
2021/03/08 03:49:23;;;;;;;54.20;28.97;;;4.50;99.90;;;;;;5031152;28;20296;-79
2021/03/08 03:52:09;;;;;;;52.73;27.40;;;4.50;99.90;;;;;;5025967;28;20615;-79
2021/03/08 03:54:55;;;;;;;52.77;28.03;;;4.50;99.90;;;;;;5031609;28;20235;-79
2021/03/08 03:57:45;;;;;;;52.67;27.30;;;4.50;99.90;;;;;;5032686;28;20212;-79
2021/03/08 04:00:34;;;;;;;47.17;24.87;;;4.50;99.90;;;;;;5027415;28;20215;-79
2021/03/08 04:03:24;;;;;;;54.20;27.43;;;4.50;99.90;;;;;;5027244;28;20235;-79
2021/03/08 04:06:10;;;;;;;51.30;26.73;;;4.50;99.90;;;;;;5032558;28;20199;-79
2021/03/08 04:08:58;;;;;;;47.87;25.30;;;4.60;99.90;;;;;;5032125;28;20285;-78
2021/03/08 04:11:45;;;;;;;46.93;24.83;;;4.60;99.90;;;;;;5031646;28;20324;-79
2021/03/08 04:14:33;;;;;;;50.97;27.27;;;4.60;99.90;;;;;;5027757;28;20217;-79
2021/03/08 04:17:18;;;;;;;52.27;27.97;;;4.60;99.90;;;;;;5036075;28;20586;-79
2021/03/08 04:20:07;;;;;;;54.60;27.47;;;4.60;99.90;;;;;;5034835;28;20211;-79
2021/03/08 04:22:53;;;;;;;51.90;26.60;;;4.60;99.90;;;;;;5033104;28;20227;-79
2021/03/08 04:25:41;;;;;;;53.83;28.37;;;4.60;99.90;;;;;;5036350;28;20206;-78
2021/03/08 04:28:27;;;;;;;56.30;27.30;;;4.60;99.90;;;;;;5039783;28;20246;-79
2021/03/08 04:31:13;;;;;;;52.47;26.97;;;4.60;99.90;;;;;;5032009;28;20232;-79
2021/03/08 04:33:59;;;;;;;55.60;28.70;;;4.70;99.90;;;;;;5037094;28;20210;-79
2021/03/08 04:36:45;;;;;;;52.67;27.00;;;4.70;99.90;;;;;;5039113;28;20698;-79
2021/03/08 04:39:32;;;;;;;50.10;26.33;;;4.70;99.90;;;;;;5034034;28;20257;-79
2021/03/08 04:42:17;;;;;;;49.13;27.40;;;4.60;99.90;;;;;;5041706;28;20226;-79
2021/03/08 04:45:05;;;;;;;44.73;23.33;;;4.70;99.90;;;;;;5036088;28;20207;-78
2021/03/08 04:47:51;;;;;;;50.87;27.57;;;4.70;99.90;;;;;;5038895;28;20767;-79
2021/03/08 04:50:37;;;;;;;55.20;30.33;;;4.70;99.90;;;;;;5040015;28;20219;-79
2021/03/08 04:53:22;;;;;;;57.20;29.03;;;4.70;99.90;;;;;;5040632;28;20222;-78
2021/03/08 04:56:07;;;;;;;46.10;26.43;;;4.70;99.90;;;;;;5034612;28;20720;-78
2021/03/08 04:58:53;;;;;;;58.53;29.07;;;4.70;99.90;;;;;;5034088;28;20206;-79
2021/03/08 05:01:39;;;;;;;56.40;30.40;;;4.70;99.90;;;;;;5038216;28;20226;-79
2021/03/08 05:04:25;;;;;;;54.83;28.83;;;4.70;99.90;;;;;;5037818;28;20245;-79
2021/03/08 05:07:13;;;;;;;53.97;28.10;;;4.70;99.90;;;;;;5037562;28;20236;-79
2021/03/08 05:10:02;;;;;;;54.27;29.33;;;4.60;99.90;;;;;;5036676;28;20223;-79
2021/03/08 05:12:51;;;;;;;47.87;26.37;;;4.70;99.90;;;;;;5036435;28;20270;-79
2021/03/08 05:15:36;;;;;;;57.97;29.37;;;4.70;99.90;;;;;;5039852;28;20207;-79
2021/03/08 05:18:23;;;;;;;52.83;27.90;;;4.70;99.90;;;;;;5035363;28;20219;-79
2021/03/08 05:21:12;;;;;;;55.60;29.50;;;4.60;99.90;;;;;;5036967;28;20305;-79
2021/03/08 05:23:58;;;;;;;56.03;28.97;;;4.70;99.90;;;;;;5037141;28;20199;-78
2021/03/08 05:26:43;;;;;;;56.10;28.53;;;4.70;99.90;;;;;;5037811;28;20202;-79
2021/03/08 05:29:28;;;;;;;54.57;27.63;;;4.60;99.90;;;;;;5031459;28;20212;-79
2021/03/08 05:32:15;;;;;;;50.57;26.03;;;4.70;99.90;;;;;;5035754;28;20228;-79
2021/03/08 05:35:02;;;;;;;48.10;25.00;;;4.70;99.90;;;;;;5028892;28;20272;-78
2021/03/08 05:37:47;;;;;;;57.73;28.57;;;4.70;99.90;;;;;;5038176;28;20210;-79
2021/03/08 05:40:40;;;;;;;55.27;29.33;;;4.70;99.90;;;;;;5036688;28;20224;-79
2021/03/08 05:43:28;;;;;;;51.20;27.73;;;4.70;99.90;;;;;;5034843;28;20259;-79
2021/03/08 05:46:20;;;;;;;50.00;27.07;;;4.70;99.90;;;;;;5028828;28;20688;-78
2021/03/08 05:49:19;;;;;;;55.43;29.20;;;4.70;99.90;;;;;;5028248;28;20215;-78
2021/03/08 05:52:38;;;;;;;56.27;29.73;;;4.70;99.90;;;;;;5024313;28;20719;-78
2021/03/08 05:55:35;;;;;;;58.30;30.77;;;4.70;99.90;;;;;;5035144;28;20239;-79
2021/03/08 05:58:40;;;;;;;54.73;28.60;;;4.70;99.90;;;;;;5056100;28;20199;-79
2021/03/08 06:02:04;;;;;;;50.80;26.07;;;4.70;99.90;;;;;;5046457;28;20283;-78
2021/03/08 06:05:18;;;;;;;52.37;26.17;;;4.70;99.90;;;;;;4970405;28;20217;-78
2021/03/08 06:08:45;;;;;;;49.90;26.53;;;4.70;99.90;;;;;;5041310;28;20212;-79
2021/03/08 06:11:33;;;;;;;54.37;29.07;;;4.70;99.90;;;;;;5037207;28;20227;-79
2021/03/08 06:14:23;;;;;;;50.23;26.17;;;4.70;99.90;;;;;;5030873;28;20235;-79
2021/03/08 06:17:12;;;;;;;60.40;30.93;;;4.70;99.90;;;;;;5036221;28;20633;-79
2021/03/08 06:20:01;;;;;;;51.40;28.20;;;4.70;99.90;;;;;;5042574;28;20211;-79
2021/03/08 06:22:48;;;;;;;46.13;25.67;;;4.70;99.90;;;;;;5031218;28;20637;-79
2021/03/08 06:25:36;;;;;;;58.77;30.00;;;4.70;99.90;;;;;;5029227;28;20207;-78
2021/03/08 06:28:21;;;;;;;52.57;28.70;;;4.70;99.90;;;;;;5030568;28;20211;-79
2021/03/08 06:31:07;;;;;;;49.47;26.83;;;4.70;99.90;;;;;;5031930;28;20212;-79
2021/03/08 06:33:52;;;;;;;54.03;28.53;;;4.70;99.90;;;;;;5030881;28;20351;-79
2021/03/08 06:36:37;;;;;;;52.30;28.27;;;4.70;99.90;;;;;;5028365;28;20218;-78
2021/03/08 06:39:22;;;;;;;53.00;28.33;;;4.70;99.90;;;;;;5035924;28;20688;-78
2021/03/08 06:42:09;;;;;;;51.27;27.43;;;4.70;99.90;;;;;;5033184;28;20715;-79
2021/03/08 06:44:55;;;;;;;57.27;30.70;;;4.80;99.90;;;;;;5022887;28;20697;-78
2021/03/08 06:47:40;;;;;;;55.70;30.23;;;4.80;99.90;;;;;;5031793;28;20207;-79
2021/03/08 06:50:25;;;;;;;55.00;29.07;;;4.80;99.90;;;;;;5026195;28;20362;-78
2021/03/08 06:53:09;;;;;;;52.00;28.70;;;4.80;99.90;;;;;;5032044;28;20250;-78
2021/03/08 06:56:17;;;;;;;53.67;27.00;;;4.80;99.90;;;;;;5025787;28;20211;-79
2021/03/08 06:59:08;;;;;;;53.03;30.03;;;4.90;99.90;;;;;;5027506;28;20227;-78
2021/03/08 07:09:33;;;;;;;54.20;28.20;;;4.90;99.90;;;;;;5009814;28;20188;-76
2021/03/08 07:12:19;;;;;;;58.20;26.90;;;4.90;99.90;;;;;;5008538;28;20259;-76
2021/03/08 07:15:06;;;;;;;53.73;28.47;;;4.90;99.90;;;;;;5011929;28;20326;-76
2021/03/08 07:17:51;;;;;;;53.07;27.87;;;5.00;99.90;;;;;;4989043;28;20266;-76
2021/03/08 07:20:36;;;;;;;55.03;26.47;;;5.00;99.90;;;;;;4989709;28;20225;-76
2021/03/08 07:23:30;;;;;;;48.73;26.93;;;5.10;99.90;;;;;;4993703;28;20228;-75
2021/03/08 07:26:17;;;;;;;59.47;30.80;;;5.10;99.90;;;;;;4999379;28;20551;-76
2021/03/08 07:29:11;;;;;;;59.90;28.43;;;5.20;99.90;;;;;;4993828;28;20313;-77
2021/03/08 07:31:57;;;;;;;51.80;30.03;;;5.20;99.90;;;;;;4985742;28;20221;-76
2021/03/08 07:34:46;;;;;;;54.93;29.20;;;5.30;99.90;;;;;;4985458;28;20561;-77
2021/03/08 07:37:43;;;;;;;51.83;28.87;;;5.30;99.90;;;;;;4992209;28;20227;-78
2021/03/08 07:40:29;;;;;;;51.03;28.63;;;5.40;99.90;;;;;;4988067;28;20276;-77
2021/03/08 07:43:20;;;;;;;49.97;28.03;;;5.40;99.90;;;;;;4992507;28;20224;-78
2021/03/08 07:46:06;;;;;;;54.67;30.23;;;5.50;99.90;;;;;;4993814;28;20712;-78
2021/03/08 07:48:52;;;;;;;51.17;29.40;;;5.60;99.90;;;;;;4992036;28;20270;-78
2021/03/08 07:51:36;;;;;;;49.70;29.50;;;5.60;99.90;;;;;;4992804;28;20232;-78
2021/03/08 07:54:22;;;;;;;49.53;29.30;;;5.70;99.90;;;;;;4987961;28;20221;-77
2021/03/08 07:57:06;;;;;;;50.57;27.87;;;5.80;99.90;;;;;;4988669;28;20268;-77
2021/03/08 07:59:52;;;;;;;46.33;26.50;;;5.80;99.90;;;;;;4994519;28;20229;-78
2021/03/08 08:02:37;;;;;;;51.23;27.50;;;5.90;99.90;;;;;;4988404;28;20415;-77
2021/03/08 08:05:23;;;;;;;53.67;28.70;;;5.90;99.90;;;;;;4992647;28;20240;-79
2021/03/08 08:08:09;;;;;;;49.03;27.27;;;6.00;99.90;;;;;;4992841;28;20248;-76
2021/03/08 08:10:57;;;;;;;49.53;27.40;;;6.10;99.90;;;;;;4990503;28;20421;-78
2021/03/08 08:13:45;;;;;;;39.47;21.30;;;6.20;99.90;;;;;;4995481;28;20751;-77
2021/03/08 08:16:31;;;;;;;47.77;27.30;;;6.30;99.90;;;;;;4994342;28;20244;-77
2021/03/08 08:19:20;;;;;;;45.97;26.97;;;6.30;99.90;;;;;;4987044;28;20208;-77
2021/03/08 08:22:14;;;;;;;45.07;26.77;;;6.40;99.90;;;;;;4989116;28;20240;-77
2021/03/08 08:25:01;;;;;;;41.97;25.00;;;6.40;99.90;;;;;;4990004;28;20204;-78
2021/03/08 08:27:48;;;;;;;48.63;27.20;;;6.50;99.90;;;;;;4992164;28;20268;-77
2021/03/08 08:30:33;;;;;;;45.57;26.83;;;6.60;99.90;;;;;;4989500;28;20708;-77
2021/03/08 08:33:27;;;;;;;45.50;26.40;;;6.60;99.90;;;;;;4991942;28;20251;-76
2021/03/08 08:36:15;;;;;;;46.67;26.87;;;6.70;99.90;;;;;;4995986;28;20275;-78
2021/03/08 08:39:15;;;;;;;44.03;26.43;;;6.70;99.90;;;;;;4992117;28;20938;-77
2021/03/08 08:42:19;;;;;;;46.83;26.07;;;6.80;99.90;;;;;;4992213;28;20267;-76
2021/03/08 08:45:27;;;;;;;43.33;25.37;;;6.80;99.90;;;;;;4990766;28;20267;-76
2021/03/08 08:48:12;;;;;;;42.70;24.90;;;6.90;99.90;;;;;;4990320;28;20612;-77
2021/03/08 08:50:58;;;;;;;43.90;25.37;;;7.00;99.90;;;;;;4990780;28;20256;-77
2021/03/08 08:53:44;;;;;;;46.87;25.77;;;7.00;99.90;;;;;;4989186;28;20213;-79
2021/03/08 08:56:47;;;;;;;50.50;26.23;;;7.10;99.90;;;;;;4985341;28;20281;-77
2021/03/08 08:59:33;;;;;;;49.87;26.67;;;7.20;99.90;;;;;;4998832;28;20300;-77
2021/03/08 09:02:31;;;;;;;44.93;26.77;;;7.20;99.90;;;;;;4992445;28;20284;-78
2021/03/08 09:05:40;;;;;;;46.20;28.50;;;7.30;99.90;;;;;;4995286;28;20658;-77
2021/03/08 09:08:31;;;;;;;52.13;25.73;;;7.40;99.90;;;;;;4991350;28;20217;-78
2021/03/08 09:11:43;;;;;;;44.87;27.43;;;7.50;99.90;;;;;;4992610;28;20621;-77
2021/03/08 09:14:36;;;;;;;45.63;25.53;;;7.60;99.90;;;;;;4988697;28;20842;-77
2021/03/08 09:17:23;;;;;;;48.87;28.37;;;7.70;99.90;;;;;;4984545;28;20233;-76
2021/03/08 09:20:25;;;;;;;52.77;28.03;;;7.80;99.90;;;;;;4993553;28;20197;-76
2021/03/08 09:23:24;;;;;;;47.07;27.03;;;7.90;99.90;;;;;;4990212;28;20712;-78
2021/03/08 09:26:10;;;;;;;51.20;26.37;;;8.00;99.90;;;;;;4994765;28;20232;-76
2021/03/08 09:28:57;;;;;;;50.07;26.40;;;8.10;99.90;;;;;;4994784;28;20204;-79
2021/03/08 09:31:43;;;;;;;45.80;26.23;;;8.30;99.90;;;;;;4988538;28;20613;-75
2021/03/08 09:34:31;;;;;;;44.60;26.83;;;8.40;99.90;;;;;;4991938;28;20208;-76
2021/03/08 09:37:18;;;;;;;48.93;29.40;;;8.60;99.90;;;;;;4990896;28;20325;-77
2021/03/08 09:40:05;;;;;;;43.70;26.33;;;8.70;99.90;;;;;;4990928;28;20736;-77
2021/03/08 09:42:51;;;;;;;44.37;25.23;;;8.90;99.90;;;;;;4991979;28;20292;-76
2021/03/08 09:45:37;;;;;;;46.30;26.97;;;9.00;99.90;;;;;;4994618;28;20240;-77
2021/03/08 09:48:22;;;;;;;42.67;24.90;;;9.20;99.90;;;;;;4998892;28;20212;-77
2021/03/08 09:51:09;;;;;;;42.83;26.37;;;9.30;99.90;;;;;;4989781;28;20213;-76
2021/03/08 09:53:56;;;;;;;43.67;26.77;;;9.50;99.90;;;;;;4996987;28;20205;-77
2021/03/08 09:56:41;;;;;;;42.53;24.67;;;9.60;99.90;;;;;;4993182;28;20295;-77
2021/03/08 09:59:26;;;;;;;41.57;24.50;;;9.80;99.90;;;;;;4993357;28;20752;-76
2021/03/08 10:02:17;;;;;;;42.63;24.47;;;10.00;99.90;;;;;;4992970;28;20743;-76
2021/03/08 10:05:03;;;;;;;40.57;24.73;;;10.20;99.90;;;;;;4995434;28;20201;-78
2021/03/08 10:07:52;;;;;;;40.27;24.27;;;10.30;99.90;;;;;;4998942;28;20212;-78
2021/03/08 10:10:38;;;;;;;38.97;23.70;;;10.50;99.90;;;;;;4992116;28;20201;-77
2021/03/08 10:13:24;;;;;;;47.10;24.97;;;10.70;99.90;;;;;;4993658;28;20229;-76
2021/03/08 10:16:09;;;;;;;44.90;25.40;;;10.80;99.90;;;;;;4993909;28;20305;-78
2021/03/08 10:18:56;;;;;;;41.07;25.47;;;11.00;99.90;;;;;;4997287;28;20719;-79
2021/03/08 10:21:42;;;;;;;40.17;24.63;;;11.10;99.90;;;;;;4998397;28;20336;-76
2021/03/08 10:24:35;;;;;;;40.20;24.23;;;11.30;99.90;;;;;;4993029;28;20200;-78
2021/03/08 10:27:20;;;;;;;39.87;24.07;;;11.30;99.90;;;;;;4992557;28;20683;-76
2021/03/08 10:30:11;;;;;;;44.10;26.40;;;11.40;99.90;;;;;;4993667;28;20220;-77
2021/03/08 10:33:01;;;;;;;35.27;23.67;;;11.50;99.90;;;;;;4993180;28;20601;-77
2021/03/08 10:35:50;;;;;;;40.00;24.50;;;11.50;99.90;;;;;;4994512;28;20264;-77
2021/03/08 10:38:36;;;;;;;40.77;25.50;;;11.50;99.90;;;;;;4987970;28;20209;-78
2021/03/08 10:41:22;;;;;;;39.67;25.63;;;11.50;99.90;;;;;;4992568;28;20687;-77
2021/03/08 10:44:07;;;;;;;37.37;23.00;;;11.50;99.90;;;;;;4995913;28;20248;-76
2021/03/08 10:46:53;;;;;;;39.57;24.80;;;11.50;99.90;;;;;;4979413;28;20776;-76
2021/03/08 10:49:48;;;;;;;39.87;24.97;;;11.50;99.90;;;;;;4994640;28;20260;-77
2021/03/08 10:52:34;;;;;;;42.00;25.90;;;11.50;99.90;;;;;;4994406;28;20236;-77
2021/03/08 10:55:29;;;;;;;41.07;24.80;;;11.50;99.90;;;;;;4996488;28;20633;-78
2021/03/08 10:58:15;;;;;;;35.73;23.00;;;11.50;99.90;;;;;;4992903;28;20299;-77
2021/03/08 11:01:07;;;;;;;38.97;24.93;;;11.50;99.90;;;;;;4989470;28;20256;-77
2021/03/08 11:03:52;;;;;;;38.80;23.40;;;11.60;99.90;;;;;;4983371;28;20206;-77
2021/03/08 11:06:45;;;;;;;40.23;25.27;;;11.60;99.90;;;;;;4990599;28;20331;-77
2021/03/08 11:09:32;;;;;;;37.27;22.93;;;11.60;99.90;;;;;;4991050;28;20263;-77
2021/03/08 11:12:18;;;;;;;41.07;26.33;;;11.70;99.90;;;;;;4989679;28;20204;-78
2021/03/08 11:15:07;;;;;;;45.77;27.37;;;11.80;99.90;;;;;;4990209;28;20213;-76
2021/03/08 11:17:52;;;;;;;38.20;23.77;;;11.90;99.90;;;;;;4994200;28;20205;-76
2021/03/08 11:20:37;;;;;;;37.53;24.03;;;11.90;99.90;;;;;;4987690;28;20279;-76
2021/03/08 11:23:25;;;;;;;37.27;23.90;;;12.00;99.90;;;;;;4996086;28;20593;-77
2021/03/08 11:26:11;;;;;;;35.43;23.03;;;12.00;99.90;;;;;;4993469;28;20228;-76
2021/03/08 11:28:56;;;;;;;37.23;23.43;;;12.10;99.90;;;;;;4991539;28;20256;-78
2021/03/08 11:31:53;;;;;;;38.07;25.63;;;12.10;99.90;;;;;;4996097;28;20230;-78
2021/03/08 11:34:39;;;;;;;37.53;23.60;;;12.20;99.90;;;;;;4991338;28;20209;-77
2021/03/08 11:37:26;;;;;;;38.20;24.90;;;12.20;99.90;;;;;;4993608;28;20264;-74
2021/03/08 11:40:15;;;;;;;35.60;23.93;;;12.30;99.90;;;;;;4997052;28;20864;-78
2021/03/08 11:43:02;;;;;;;35.57;23.10;;;12.30;99.90;;;;;;4994407;28;20279;-76
2021/03/08 11:45:47;;;;;;;36.73;24.57;;;12.30;99.90;;;;;;4992792;28;20229;-77
2021/03/08 11:48:32;;;;;;;36.13;23.30;;;12.30;99.90;;;;;;4991032;28;20208;-76
2021/03/08 11:51:19;;;;;;;38.53;23.63;;;12.40;99.90;;;;;;4995698;28;20261;-76
2021/03/08 11:54:04;;;;;;;38.13;23.90;;;12.40;99.90;;;;;;4985261;28;20221;-76
2021/03/08 11:56:49;;;;;;;36.47;24.57;;;12.50;99.90;;;;;;4992287;28;20233;-77
2021/03/08 11:59:35;;;;;;;38.23;24.70;;;12.60;99.90;;;;;;4987468;28;20255;-78
2021/03/08 12:02:20;;;;;;;35.67;23.57;;;12.80;99.90;;;;;;4979573;28;20241;-77
2021/03/08 12:05:07;;;;;;;33.83;22.87;;;12.90;99.90;;;;;;5002746;28;20694;-80
2021/03/08 12:07:52;;;;;;;32.60;22.30;;;13.00;99.90;;;;;;5000172;28;20213;-76
2021/03/08 12:10:37;;;;;;;37.97;23.93;;;13.20;99.90;;;;;;4988554;28;20288;-77
2021/03/08 12:13:21;;;;;;;35.57;22.33;;;13.30;99.90;;;;;;4990880;28;20216;-76
2021/03/08 12:16:07;;;;;;;36.20;23.43;;;13.40;99.90;;;;;;4985426;28;20230;-78
2021/03/08 12:18:52;;;;;;;34.50;22.60;;;13.50;99.90;;;;;;4992322;28;20268;-77
2021/03/08 12:21:36;;;;;;;33.23;20.67;;;13.60;99.90;;;;;;4987476;28;20300;-77
2021/03/08 12:24:21;;;;;;;35.70;21.00;;;13.80;99.90;;;;;;4991535;28;20258;-78
2021/03/08 12:27:07;;;;;;;29.60;20.60;;;13.90;99.90;;;;;;4994079;28;20237;-78
2021/03/08 12:29:52;;;;;;;32.10;21.27;;;14.10;99.90;;;;;;4997063;28;20312;-77
2021/03/08 12:32:40;;;;;;;31.90;20.23;;;14.10;99.90;;;;;;4980901;28;20238;-78
2021/03/08 12:35:24;;;;;;;32.03;21.50;;;14.30;99.90;;;;;;4997886;28;20269;-77
2021/03/08 12:38:09;;;;;;;33.23;20.17;;;14.40;99.90;;;;;;4995840;28;20271;-76
2021/03/08 12:40:54;;;;;;;29.53;18.63;;;14.50;99.90;;;;;;4993643;28;20269;-76
2021/03/08 12:43:39;;;;;;;26.90;18.03;;;14.70;99.90;;;;;;4991090;28;20219;-76
2021/03/08 12:46:25;;;;;;;26.73;18.40;;;14.80;99.20;;;;;;4992515;28;20226;-77
2021/03/08 12:49:11;;;;;;;28.30;18.07;;;15.00;98.80;;;;;;4987835;28;20229;-77
2021/03/08 12:51:56;;;;;;;35.43;18.17;;;15.10;98.10;;;;;;4999304;28;20222;-77
2021/03/08 12:54:40;;;;;;;26.23;17.03;;;15.20;97.10;;;;;;4997166;28;20206;-77
2021/03/08 12:57:26;;;;;;;30.17;17.73;;;15.20;96.00;;;;;;4990338;28;20638;-77
2021/03/08 13:00:12;;;;;;;24.07;16.47;;;15.30;96.70;;;;;;4991766;28;20214;-77
2021/03/08 13:02:58;;;;;;;26.57;17.23;;;15.20;95.70;;;;;;4994753;28;20578;-76
2021/03/08 13:05:43;;;;;;;25.97;18.10;;;15.20;95.40;;;;;;4994856;28;20246;-77
2021/03/08 13:08:28;;;;;;;24.77;17.50;;;15.20;95.80;;;;;;4992829;28;20250;-77
2021/03/08 13:11:13;;;;;;;24.53;16.23;;;15.20;94.40;;;;;;4994336;28;20725;-78
2021/03/08 13:13:57;;;;;;;26.60;17.87;;;15.10;95.10;;;;;;4995701;28;20216;-77
2021/03/08 13:16:42;;;;;;;26.10;16.83;;;15.20;96.00;;;;;;4990511;28;20238;-78
2021/03/08 13:19:27;;;;;;;27.20;18.40;;;15.30;95.10;;;;;;4991617;28;20217;-77
2021/03/08 13:22:12;;;;;;;24.30;17.20;;;15.40;94.50;;;;;;4995910;28;20266;-77
2021/03/08 13:24:57;;;;;;;28.03;17.40;;;15.50;94.90;;;;;;4994936;28;20721;-77
2021/03/08 13:27:42;;;;;;;23.93;15.90;;;15.70;93.80;;;;;;4998346;28;20211;-77
2021/03/08 13:30:28;;;;;;;26.73;16.50;;;15.80;93.60;;;;;;4988855;28;20767;-78
2021/03/08 13:33:13;;;;;;;26.87;17.03;;;15.80;92.90;;;;;;4995483;28;20245;-77
2021/03/08 13:35:57;;;;;;;23.07;15.43;;;15.90;92.70;;;;;;5002090;28;20243;-77
2021/03/08 13:38:43;;;;;;;24.47;15.17;;;15.90;92.40;;;;;;4988007;28;20218;-78
2021/03/08 13:41:27;;;;;;;21.70;14.27;;;15.80;92.80;;;;;;4992078;28;20268;-77
2021/03/08 13:44:14;;;;;;;23.53;15.60;;;15.80;92.30;;;;;;4993864;28;20214;-77
2021/03/08 13:47:00;;;;;;;25.10;14.53;;;15.80;92.10;;;;;;4988931;28;20716;-77
2021/03/08 13:49:45;;;;;;;23.47;14.03;;;15.70;92.70;;;;;;4990178;28;20271;-78
2021/03/08 13:52:30;;;;;;;21.60;13.83;;;15.70;91.50;;;;;;4987728;28;20642;-77
2021/03/08 13:55:16;;;;;;;21.13;14.27;;;15.60;92.30;;;;;;4998051;28;20251;-77
2021/03/08 13:58:01;;;;;;;19.30;14.10;;;15.50;91.20;;;;;;4992351;28;20690;-78
2021/03/08 14:00:46;;;;;;;22.57;14.00;;;15.50;92.50;;;;;;5002361;28;20210;-78
2021/03/08 14:03:31;;;;;;;25.37;15.57;;;15.60;92.80;;;;;;4993246;28;20311;-76
2021/03/08 14:06:17;;;;;;;24.47;14.73;;;15.40;92.60;;;;;;4996228;28;20686;-77
2021/03/08 14:09:03;;;;;;;21.77;13.53;;;15.40;92.00;;;;;;4991566;28;20580;-77
2021/03/08 14:11:49;;;;;;;22.63;14.70;;;15.50;91.90;;;;;;4998001;28;20240;-76
2021/03/08 14:14:33;;;;;;;21.13;13.77;;;15.60;90.90;;;;;;4996655;28;20271;-78
2021/03/08 14:17:18;;;;;;;19.90;13.97;;;15.80;92.30;;;;;;4987723;28;20291;-78
2021/03/08 14:20:03;;;;;;;21.50;14.77;;;16.00;92.30;;;;;;4992593;28;20235;-77
2021/03/08 14:22:50;;;;;;;23.73;13.67;;;16.30;91.10;;;;;;4983454;28;20310;-77
2021/03/08 14:25:35;;;;;;;22.67;13.43;;;16.50;90.90;;;;;;4994292;28;20234;-78